createdAt,value
2023-04-08T00:02:14.506Z,95.78
2023-04-08T00:07:14.304Z,95.73
2023-04-08T00:12:14.245Z,96.34
2023-04-08T00:17:14.161Z,96.20
2023-04-08T00:22:14.113Z,95.99
2023-04-08T00:27:14.028Z,95.99
2023-04-08T00:32:13.951Z,96.09
2023-04-08T00:37:13.893Z,96.51
2023-04-08T00:42:13.807Z,96.55
2023-04-08T00:47:13.750Z,96.61
2023-04-08T00:52:13.717Z,96.41
2023-04-08T00:57:13.610Z,96.67
2023-04-08T01:02:13.877Z,95.53
2023-04-08T01:07:13.489Z,96.30
2023-04-08T01:12:13.433Z,96.15
2023-04-08T01:17:13.351Z,96.51
2023-04-08T01:22:13.276Z,97.13
2023-04-08T01:27:13.210Z,97.54
2023-04-08T01:32:13.145Z,98.16
2023-04-08T01:37:13.077Z,98.16
2023-04-08T01:42:13.015Z,98.47
2023-04-08T01:47:12.945Z,98.68
2023-04-08T01:52:12.899Z,98.74
2023-04-08T01:57:12.834Z,98.32
2023-04-08T02:02:12.879Z,98.01
2023-04-08T02:07:12.675Z,97.91
2023-04-08T02:12:12.608Z,98.11
2023-04-08T02:17:12.564Z,98.53
2023-04-08T02:22:12.470Z,99.05
2023-04-08T02:27:12.416Z,98.79
2023-04-08T02:32:12.342Z,98.07
2023-04-08T02:37:12.266Z,97.09
2023-04-08T02:42:12.227Z,96.73
2023-04-08T02:47:12.120Z,97.66
2023-04-08T02:52:12.055Z,98.69
2023-04-08T02:57:11.983Z,98.49
2023-04-08T03:02:12.016Z,98.28
2023-04-08T03:07:11.846Z,98.07
2023-04-08T03:12:11.803Z,98.33
2023-04-08T03:17:11.721Z,98.38
2023-04-08T03:22:11.648Z,98.90
2023-04-08T03:27:11.584Z,99.31
2023-04-08T03:32:11.641Z,98.54
2023-04-08T03:37:11.453Z,97.82
2023-04-08T03:42:11.398Z,98.07
2023-04-08T03:47:11.328Z,98.75
2023-04-08T03:52:11.262Z,98.75
2023-04-08T03:57:11.195Z,98.49
2023-04-08T04:02:11.198Z,98.44
2023-04-08T04:07:11.047Z,98.23
2023-04-08T04:12:10.992Z,97.66
2023-04-08T04:17:10.914Z,98.28
2023-04-08T04:22:10.858Z,99.00
2023-04-08T04:27:10.792Z,99.46
2023-04-08T04:32:10.733Z,99.87
2023-04-08T04:37:10.647Z,99.93
2023-04-08T04:42:10.580Z,99.82
2023-04-08T04:47:10.504Z,99.99
2023-04-08T04:52:10.483Z,99.99
2023-04-08T04:57:10.394Z,99.99
2023-04-08T05:02:10.399Z,99.99
2023-04-08T05:07:10.247Z,99.99
2023-04-08T05:12:10.181Z,99.99
2023-04-08T05:17:10.113Z,99.99
2023-04-08T05:22:10.061Z,99.99
2023-04-08T05:27:09.993Z,99.99
2023-04-08T05:32:09.917Z,99.47
2023-04-08T05:37:09.849Z,99.62
2023-04-08T05:42:09.786Z,99.68
2023-04-08T05:47:09.827Z,99.57
2023-04-08T05:52:09.658Z,99.22
2023-04-08T05:57:10.491Z,99.11
2023-04-08T06:02:09.592Z,99.11
2023-04-08T06:07:09.510Z,99.43
2023-04-08T06:12:09.396Z,99.07
2023-04-08T06:17:09.334Z,98.20
2023-04-08T06:22:09.254Z,98.10
2023-04-08T06:27:09.192Z,97.48
2023-04-08T06:32:09.176Z,97.58
2023-04-08T06:37:09.058Z,97.43
2023-04-08T06:42:08.985Z,96.56
2023-04-08T06:47:08.943Z,95.74
2023-04-08T06:52:09.132Z,95.43
2023-04-08T06:57:08.802Z,95.43
2023-04-08T07:02:08.737Z,95.23
2023-04-08T07:07:08.685Z,94.98
2023-04-08T07:12:08.577Z,94.62
2023-04-08T07:17:08.671Z,91.66
2023-04-08T07:22:08.457Z,89.56
2023-04-08T07:27:08.387Z,88.74
2023-04-08T07:32:08.318Z,87.05
2023-04-08T07:37:08.257Z,85.58
2023-04-08T07:42:08.195Z,85.41
2023-04-08T07:47:08.121Z,83.63
2023-04-08T07:52:08.061Z,82.91
2023-04-08T07:57:07.987Z,82.15
2023-04-08T08:02:07.985Z,82.26
2023-04-08T08:07:07.852Z,80.44
2023-04-08T08:12:07.806Z,77.64
2023-04-08T08:17:07.733Z,77.60
2023-04-08T08:22:07.670Z,75.86
2023-04-08T08:27:07.605Z,76.03
2023-04-08T08:32:07.529Z,76.51
2023-04-08T08:37:07.454Z,77.26
2023-04-08T08:42:07.400Z,74.90
2023-04-08T08:47:07.323Z,71.70
2023-04-08T08:52:07.258Z,71.05
2023-04-08T08:57:07.191Z,71.83
2023-04-08T09:02:07.229Z,70.10
2023-04-08T09:07:07.056Z,70.95
2023-04-08T09:12:06.994Z,71.70
2023-04-08T09:17:06.915Z,72.82
2023-04-08T09:22:06.900Z,72.89
2023-04-08T09:27:06.835Z,71.90
2023-04-08T09:32:06.906Z,72.17
2023-04-08T09:37:06.653Z,71.73
2023-04-08T09:42:06.597Z,69.45
2023-04-08T09:47:06.542Z,71.87
2023-04-08T09:52:06.469Z,72.72
2023-04-08T09:57:06.385Z,73.88
2023-04-08T10:02:06.417Z,72.24
2023-04-08T10:07:06.288Z,72.86
2023-04-08T10:12:06.224Z,73.88
2023-04-08T10:17:06.197Z,73.23
2023-04-08T10:22:07.486Z,71.87
2023-04-08T10:27:05.998Z,71.66
2023-04-08T10:32:05.986Z,72.62
2023-04-08T10:37:05.908Z,71.29
2023-04-08T10:42:05.850Z,68.63
2023-04-08T10:47:05.770Z,69.99
2023-04-08T10:52:05.743Z,69.92
2023-04-08T10:57:05.646Z,69.24
2023-04-08T11:02:05.795Z,69.78
2023-04-08T11:07:05.526Z,71.76
2023-04-08T11:12:05.435Z,73.57
2023-04-08T11:17:05.361Z,72.44
2023-04-08T11:22:05.322Z,74.66
2023-04-08T11:27:05.222Z,75.42
2023-04-08T11:32:05.171Z,76.14
2023-04-08T11:37:05.112Z,78.43
2023-04-08T11:42:05.059Z,77.58
2023-04-08T11:47:04.970Z,76.34
2023-04-08T11:52:04.924Z,73.71
2023-04-08T11:57:04.846Z,75.01
2023-04-08T12:02:04.835Z,76.58
2023-04-08T12:07:04.708Z,75.31
2023-04-08T12:12:04.613Z,74.87
2023-04-08T12:17:04.537Z,77.67
2023-04-08T12:22:04.517Z,77.64
2023-04-08T12:27:04.433Z,75.86
2023-04-08T12:32:04.371Z,76.57
2023-04-08T12:37:04.280Z,77.64
2023-04-08T12:42:04.202Z,77.64
2023-04-08T12:47:04.174Z,76.54
2023-04-08T12:52:04.087Z,77.09
2023-04-08T12:57:04.006Z,76.14
2023-04-08T13:02:03.955Z,74.80
2023-04-08T13:07:03.887Z,74.90
2023-04-08T13:12:03.796Z,74.90
2023-04-08T13:17:03.747Z,75.01
2023-04-08T13:22:03.665Z,75.24
2023-04-08T13:27:03.617Z,76.20
2023-04-08T13:32:03.602Z,77.84
2023-04-08T13:37:03.464Z,76.51
2023-04-08T13:42:03.394Z,75.38
2023-04-08T13:47:03.319Z,75.28
2023-04-08T13:52:03.243Z,75.73
2023-04-08T13:57:03.182Z,74.87
2023-04-08T14:02:03.230Z,75.28
2023-04-08T14:07:03.056Z,76.07
2023-04-08T14:12:02.979Z,76.68
2023-04-08T14:17:02.974Z,76.68
2023-04-08T14:22:02.848Z,75.45
2023-04-08T14:27:02.786Z,75.42
2023-04-08T14:32:02.722Z,76.28
2023-04-08T14:37:02.668Z,76.21
2023-04-08T14:42:02.595Z,77.85
2023-04-08T14:47:02.527Z,77.68
2023-04-08T14:52:02.470Z,76.90
2023-04-08T14:57:02.415Z,77.27
2023-04-08T15:02:02.412Z,75.97
2023-04-08T15:07:02.282Z,75.56
2023-04-08T15:12:02.191Z,76.04
2023-04-08T15:17:02.231Z,74.08
2023-04-08T15:22:02.172Z,73.57
2023-04-08T15:27:02.025Z,74.91
2023-04-08T15:32:01.978Z,74.60
2023-04-08T15:37:01.863Z,74.60
2023-04-08T15:42:01.818Z,74.80
2023-04-08T15:47:01.836Z,74.95
2023-04-08T15:52:01.663Z,74.33
2023-04-08T15:57:01.580Z,75.67
2023-04-08T16:02:01.600Z,75.46
2023-04-08T16:07:01.465Z,75.35
2023-04-08T16:12:01.377Z,76.01
2023-04-08T16:17:01.326Z,76.73
2023-04-08T16:22:01.241Z,76.83
2023-04-08T16:27:01.191Z,77.14
2023-04-08T16:32:01.128Z,77.28
2023-04-08T16:37:01.052Z,77.34
2023-04-08T16:42:00.988Z,77.14
2023-04-08T16:47:00.912Z,77.69
2023-04-08T16:52:00.886Z,78.82
2023-04-08T16:57:00.788Z,78.96
2023-04-08T17:02:00.775Z,79.13
2023-04-08T17:07:00.653Z,78.92
2023-04-08T17:12:00.583Z,78.51
2023-04-08T17:17:00.531Z,78.51
2023-04-08T17:22:00.450Z,78.30
2023-04-08T17:27:00.404Z,78.65
2023-04-08T17:32:00.411Z,79.30
2023-04-08T17:37:00.273Z,80.16
2023-04-08T17:42:00.223Z,81.44
2023-04-08T17:47:00.132Z,82.92
2023-04-08T17:52:00.092Z,82.61
2023-04-08T17:57:00.003Z,82.82
2023-04-08T18:01:59.941Z,82.47
2023-04-08T18:06:59.885Z,82.47
2023-04-08T18:11:59.804Z,82.37
2023-04-08T18:16:59.767Z,81.75
2023-04-08T18:21:59.662Z,82.47
2023-04-08T18:27:04.375Z,82.26
2023-04-08T18:32:00.544Z,83.23
2023-04-08T18:36:59.473Z,83.13
2023-04-08T18:41:59.408Z,83.33
2023-04-08T18:46:59.338Z,83.23
2023-04-08T18:52:02.968Z,82.82
2023-04-08T18:56:59.205Z,82.71
2023-04-08T19:01:59.218Z,83.03
2023-04-08T19:06:59.076Z,83.13
2023-04-08T19:11:59.008Z,83.48
2023-04-08T19:16:58.957Z,83.58
2023-04-08T19:21:58.860Z,84.13
2023-04-08T19:26:58.805Z,84.75
2023-04-08T19:31:58.721Z,85.52
2023-04-08T19:36:58.666Z,86.28
2023-04-08T19:41:58.617Z,87.70
2023-04-08T19:46:58.527Z,89.09
2023-04-08T19:51:58.473Z,88.94
2023-04-08T19:56:58.586Z,88.78
2023-04-08T20:01:58.385Z,89.09
2023-04-08T20:06:58.282Z,89.96
2023-04-08T20:11:58.203Z,91.03
2023-04-08T20:16:58.151Z,90.83
2023-04-08T20:21:58.084Z,91.14
2023-04-08T20:26:58.006Z,91.35
2023-04-08T20:31:58.027Z,92.22
2023-04-08T20:36:57.931Z,92.32
2023-04-08T20:41:57.814Z,92.53
2023-04-08T20:46:57.815Z,92.22
2023-04-08T20:51:57.680Z,92.26
2023-04-08T20:56:57.620Z,93.33
2023-04-08T21:01:57.681Z,94.63
2023-04-08T21:06:57.486Z,95.77
2023-04-08T21:11:57.418Z,96.08
2023-04-08T21:16:57.365Z,95.87
2023-04-08T21:21:57.277Z,96.60
2023-04-08T21:26:57.217Z,96.12
2023-04-08T21:31:57.185Z,96.79
2023-04-08T21:36:57.137Z,97.20
2023-04-08T21:41:57.019Z,97.41
2023-04-08T21:46:57.562Z,97.31
2023-04-08T21:51:56.888Z,97.04
2023-04-08T21:56:56.889Z,97.56
2023-04-08T22:01:56.807Z,97.35
2023-04-08T22:06:56.695Z,98.33
2023-04-08T22:11:56.630Z,98.33
2023-04-08T22:16:56.667Z,98.33
2023-04-08T22:21:56.502Z,98.27
2023-04-08T22:26:56.440Z,98.38
2023-04-08T22:31:56.383Z,98.69
2023-04-08T22:36:56.307Z,98.53
2023-04-08T22:41:56.243Z,99.72
2023-04-08T22:46:56.192Z,99.99
2023-04-08T22:51:56.126Z,99.99
2023-04-08T22:56:56.045Z,99.99
2023-04-08T23:01:56.062Z,99.99
2023-04-08T23:06:55.933Z,99.99
2023-04-08T23:11:55.865Z,99.76
2023-04-08T23:16:55.783Z,99.66
2023-04-08T23:21:55.714Z,99.87
2023-04-08T23:26:55.662Z,99.60
2023-04-08T23:31:55.587Z,99.99
2023-04-08T23:36:55.532Z,99.99
2023-04-08T23:41:55.455Z,99.99
2023-04-08T23:46:55.439Z,99.99
2023-04-08T23:51:55.318Z,99.99
2023-04-08T23:56:55.259Z,99.99
